Terminal Aerodrome Forecast
Issued by NWS Shreveport, LA

Home | Current Version | Previous Version | Text Only | Print | Product List | Glossary On
Versions: 1 2 3 4 5 6 7 8 9 10 11 12 13 14 15 16 17
000
FTUS44 KSHV 181746
TAFMLU
TAF
KMLU 181746Z 1818/1918 VRB03KT 6SM BR OVC006
     FM181900 VRB03KT P6SM OVC007
     FM190100 00000KT 2SM BR OVC010
     FM190800 VRB03KT 1/2SM FG VCSH OVC002
     FM191200 VRB03KT 2SM -SHRA BR OVC300
     FM191700 19004KT 3SM -TSRA OVC003CB=

USA.gov is the U.S. government's official web portal to all federal, state and local government web resources and services.